createdAt,value
2018-11-13T00:00:15.553Z,0
2018-11-13T00:01:15.036Z,0
2018-11-13T00:02:15.326Z,0
2018-11-13T00:03:15.364Z,0
2018-11-13T00:04:15.374Z,0
2018-11-13T00:05:15.119Z,0
2018-11-13T00:06:15.400Z,0
2018-11-13T00:07:15.161Z,0
2018-11-13T00:08:15.514Z,0
2018-11-13T00:09:16.038Z,0
2018-11-13T00:10:15.495Z,0
2018-11-13T00:11:15.307Z,0
2018-11-13T00:12:15.274Z,0
2018-11-13T00:13:15.294Z,0
2018-11-13T00:14:15.586Z,0
2018-11-13T00:15:15.888Z,0
2018-11-13T00:16:15.366Z,0
2018-11-13T00:17:15.377Z,0
2018-11-13T00:18:15.681Z,0
2018-11-13T00:19:15.957Z,0
2018-11-13T00:20:15.460Z,0
2018-11-13T00:21:15.483Z,0
2018-11-13T00:22:16.027Z,0
2018-11-13T00:23:15.799Z,0
2018-11-13T00:24:16.391Z,0
2018-11-13T00:25:15.838Z,0
2018-11-13T00:26:16.111Z,0
2018-11-13T00:27:16.187Z,0
2018-11-13T00:28:15.900Z,0
2018-11-13T00:29:15.655Z,0
2018-11-13T00:30:15.683Z,0
2018-11-13T00:31:15.969Z,0
2018-11-13T00:32:15.978Z,0
2018-11-13T00:33:15.487Z,0
2018-11-13T00:34:15.806Z,0
2018-11-13T00:35:16.074Z,0
2018-11-13T00:36:16.604Z,0
2018-11-13T00:37:16.092Z,0
2018-11-13T00:38:15.859Z,0
2018-11-13T00:39:16.747Z,0
2018-11-13T00:40:15.939Z,0
2018-11-13T00:41:16.206Z,0
2018-11-13T00:42:15.943Z,0
2018-11-13T00:43:16.500Z,0
2018-11-13T00:44:16.255Z,0
2018-11-13T00:45:16.085Z,0
2018-11-13T00:46:16.032Z,0
2018-11-13T00:47:15.787Z,0
2018-11-13T00:48:16.381Z,0
2018-11-13T00:49:16.369Z,0
2018-11-13T00:50:16.418Z,0
2018-11-13T00:51:16.158Z,0
2018-11-13T00:52:16.439Z,0
2018-11-13T00:53:16.197Z,0
2018-11-13T00:54:16.476Z,0
2018-11-13T00:55:15.960Z,0
2018-11-13T00:56:16.797Z,0
2018-11-13T00:57:16.543Z,0
2018-11-13T00:58:16.576Z,0
2018-11-13T00:59:16.083Z,0
2018-11-13T01:00:16.403Z,0
2018-11-13T01:01:16.639Z,0
2018-11-13T01:02:16.674Z,0
2018-11-13T01:03:16.695Z,0
2018-11-13T01:04:16.440Z,0
2018-11-13T01:05:16.234Z,0
2018-11-13T01:06:16.765Z,0
2018-11-13T01:07:16.517Z,0
2018-11-13T01:08:17.073Z,0
2018-11-13T01:09:16.549Z,0
2018-11-13T01:10:16.573Z,0
2018-11-13T01:11:16.595Z,0
2018-11-13T01:12:16.344Z,0
2018-11-13T01:13:17.177Z,0
2018-11-13T01:14:17.209Z,0
2018-11-13T01:15:17.776Z,0
2018-11-13T01:16:16.712Z,0
2018-11-13T01:17:17.310Z,0
2018-11-13T01:18:16.746Z,0
2018-11-13T01:19:16.514Z,0
2018-11-13T01:20:16.797Z,0
2018-11-13T01:21:16.834Z,0
2018-11-13T01:22:17.403Z,0
2018-11-13T01:23:16.867Z,0
2018-11-13T01:24:17.964Z,0
2018-11-13T01:25:17.470Z,0
2018-11-13T01:26:17.467Z,0
2018-11-13T01:27:16.945Z,0
2018-11-13T01:28:16.982Z,0
2018-11-13T01:29:17.006Z,0
2018-11-13T01:30:17.567Z,0
2018-11-13T01:31:17.379Z,0
2018-11-13T01:32:17.339Z,0
2018-11-13T01:33:17.109Z,0
2018-11-13T01:34:17.389Z,0
2018-11-13T01:35:17.434Z,0
2018-11-13T01:36:17.947Z,0
2018-11-13T01:37:17.437Z,0
2018-11-13T01:38:17.194Z,0
2018-11-13T01:39:17.225Z,0
2018-11-13T01:40:17.532Z,0
2018-11-13T01:41:17.290Z,0
2018-11-13T01:42:17.025Z,0
2018-11-13T01:43:17.299Z,0
2018-11-13T01:44:18.128Z,0
2018-11-13T01:45:17.633Z,0
2018-11-13T01:46:17.680Z,0
2018-11-13T01:47:17.126Z,0
2018-11-13T01:48:17.905Z,0
2018-11-13T01:49:17.981Z,0
2018-11-13T01:50:17.749Z,0
2018-11-13T01:51:17.484Z,0
2018-11-13T01:52:18.052Z,0
2018-11-13T01:53:17.263Z,0
2018-11-13T01:54:17.855Z,0
2018-11-13T01:55:17.861Z,0
2018-11-13T01:56:17.602Z,0
2018-11-13T01:57:18.563Z,0
2018-11-13T01:58:17.653Z,0
2018-11-13T01:59:17.407Z,0
2018-11-13T02:00:18.491Z,0
2018-11-13T02:01:17.726Z,0
2018-11-13T02:02:18.267Z,0
2018-11-13T02:03:18.034Z,0
2018-11-13T02:04:17.778Z,0
2018-11-13T02:05:18.074Z,0
2018-11-13T02:06:17.826Z,0
2018-11-13T02:07:18.126Z,0
2018-11-13T02:08:17.866Z,0
2018-11-13T02:09:17.900Z,0
2018-11-13T02:10:17.657Z,0
2018-11-13T02:11:18.203Z,0
2018-11-13T02:12:18.234Z,0
2018-11-13T02:13:17.731Z,0
2018-11-13T02:14:18.266Z,0
2018-11-13T02:15:18.573Z,0
2018-11-13T02:16:18.581Z,0
2018-11-13T02:17:18.635Z,0
2018-11-13T02:18:18.368Z,0
2018-11-13T02:19:18.111Z,0
2018-11-13T02:20:17.875Z,0
2018-11-13T02:21:18.156Z,0
2018-11-13T02:22:18.445Z,0
2018-11-13T02:23:18.996Z,0
2018-11-13T02:24:18.218Z,0
2018-11-13T02:25:18.263Z,0
2018-11-13T02:26:18.544Z,0
2018-11-13T02:27:18.299Z,0
2018-11-13T02:28:18.317Z,0
2018-11-13T02:29:18.336Z,0
2018-11-13T02:30:18.631Z,0
2018-11-13T02:31:18.922Z,0
2018-11-13T02:32:18.705Z,0
2018-11-13T02:33:18.717Z,0
2018-11-13T02:34:18.731Z,0
2018-11-13T02:35:19.234Z,0
2018-11-13T02:36:19.053Z,0
2018-11-13T02:37:19.072Z,0
2018-11-13T02:38:18.800Z,0
2018-11-13T02:39:18.570Z,0
2018-11-13T02:40:18.604Z,0
2018-11-13T02:41:18.880Z,0
2018-11-13T02:42:18.907Z,0
2018-11-13T02:43:18.917Z,0
2018-11-13T02:44:18.699Z,0
2018-11-13T02:45:19.251Z,0
2018-11-13T02:46:19.000Z,0
2018-11-13T02:47:19.581Z,0
2018-11-13T02:48:19.160Z,0
2018-11-13T02:49:19.126Z,0
2018-11-13T02:50:19.393Z,0
2018-11-13T02:51:18.844Z,0
2018-11-13T02:52:18.634Z,0
2018-11-13T02:53:18.876Z,0
2018-11-13T02:54:18.632Z,0
2018-11-13T02:55:18.937Z,0
2018-11-13T02:56:19.501Z,0
2018-11-13T02:57:19.239Z,0
2018-11-13T02:58:19.253Z,0
2018-11-13T02:59:18.734Z,0
2018-11-13T03:00:19.038Z,0
2018-11-13T03:01:19.330Z,0
2018-11-13T03:02:19.625Z,0
2018-11-13T03:03:19.651Z,0
2018-11-13T03:04:19.666Z,0
2018-11-13T03:05:19.141Z,0
2018-11-13T03:06:19.445Z,0
2018-11-13T03:07:19.717Z,0
2018-11-13T03:08:19.483Z,0
2018-11-13T03:09:19.248Z,0
2018-11-13T03:10:19.796Z,0
2018-11-13T03:11:19.559Z,0
2018-11-13T03:12:19.312Z,0
2018-11-13T03:13:19.322Z,0
2018-11-13T03:14:19.618Z,0
2018-11-13T03:15:19.684Z,0
2018-11-13T03:16:19.927Z,0
2018-11-13T03:17:19.672Z,0
2018-11-13T03:18:19.695Z,0
2018-11-13T03:19:19.725Z,0
2018-11-13T03:20:19.472Z,0
2018-11-13T03:21:19.767Z,0
2018-11-13T03:22:19.535Z,0
2018-11-13T03:23:19.817Z,0
2018-11-13T03:24:19.837Z,0
2018-11-13T03:25:20.148Z,0
2018-11-13T03:26:19.625Z,0
2018-11-13T03:27:19.903Z,0
2018-11-13T03:28:19.933Z,0
2018-11-13T03:29:19.685Z,0
2018-11-13T03:30:20.011Z,0
2018-11-13T03:31:21.048Z,0
2018-11-13T03:32:19.787Z,0
2018-11-13T03:33:20.030Z,0
2018-11-13T03:34:19.803Z,0
2018-11-13T03:35:20.100Z,0
2018-11-13T03:36:20.108Z,0
2018-11-13T03:37:20.404Z,0
2018-11-13T03:38:19.621Z,0
2018-11-13T03:39:20.485Z,0
2018-11-13T03:40:19.926Z,0
2018-11-13T03:41:20.222Z,0
2018-11-13T03:42:20.232Z,0
2018-11-13T03:43:20.513Z,0
2018-11-13T03:44:20.306Z,0
2018-11-13T03:45:20.309Z,0
2018-11-13T03:46:19.795Z,0
2018-11-13T03:47:20.082Z,0
2018-11-13T03:48:20.645Z,0
2018-11-13T03:49:20.115Z,0
2018-11-13T03:50:20.432Z,0
2018-11-13T03:51:20.176Z,0
2018-11-13T03:52:20.458Z,0
2018-11-13T03:53:20.480Z,0
2018-11-13T03:54:20.262Z,0
2018-11-13T03:55:20.812Z,0
2018-11-13T03:56:20.821Z,0
2018-11-13T03:57:20.309Z,0
2018-11-13T03:58:20.589Z,0
2018-11-13T03:59:20.885Z,0
2018-11-13T04:00:20.119Z,0
2018-11-13T04:01:20.667Z,0
2018-11-13T04:02:20.147Z,0
2018-11-13T04:03:21.007Z,0
2018-11-13T04:04:20.459Z,0
2018-11-13T04:05:21.318Z,0
2018-11-13T04:06:20.513Z,0
2018-11-13T04:07:20.792Z,0
2018-11-13T04:08:20.825Z,0
2018-11-13T04:09:20.840Z,0
2018-11-13T04:10:20.892Z,0
2018-11-13T04:11:20.891Z,0
2018-11-13T04:12:20.924Z,0
2018-11-13T04:13:20.925Z,0
2018-11-13T04:14:20.955Z,0
2018-11-13T04:15:20.455Z,0
2018-11-13T04:16:21.010Z,0
2018-11-13T04:17:21.022Z,0
2018-11-13T04:18:21.046Z,0
2018-11-13T04:19:21.070Z,0
2018-11-13T04:20:20.829Z,0
2018-11-13T04:21:20.836Z,0
2018-11-13T04:22:21.128Z,0
2018-11-13T04:23:20.918Z,0
2018-11-13T04:24:20.906Z,0
2018-11-13T04:25:20.943Z,0
2018-11-13T04:26:21.747Z,0
2018-11-13T04:27:21.240Z,0
2018-11-13T04:28:21.557Z,0
2018-11-13T04:29:21.300Z,0
2018-11-13T04:30:21.056Z,0
2018-11-13T04:31:21.059Z,0
2018-11-13T04:32:21.647Z,0
2018-11-13T04:33:21.379Z,0
2018-11-13T04:34:21.143Z,0
2018-11-13T04:35:21.419Z,0
2018-11-13T04:36:20.904Z,0
2018-11-13T04:37:21.458Z,0
2018-11-13T04:38:21.211Z,0
2018-11-13T04:39:21.762Z,0
2018-11-13T04:40:21.785Z,0
2018-11-13T04:41:21.017Z,0
2018-11-13T04:42:21.305Z,0
2018-11-13T04:43:21.324Z,0
2018-11-13T04:44:21.631Z,0
2018-11-13T04:45:21.928Z,0
2018-11-13T04:46:21.652Z,0
2018-11-13T04:47:21.957Z,0
2018-11-13T04:48:21.708Z,0
2018-11-13T04:49:21.717Z,0
2018-11-13T04:50:21.764Z,0
2018-11-13T04:51:21.297Z,0
2018-11-13T04:52:21.797Z,0
2018-11-13T04:53:22.092Z,0
2018-11-13T04:54:21.863Z,0
2018-11-13T04:55:21.876Z,0
2018-11-13T04:56:21.625Z,0
2018-11-13T04:57:21.897Z,0
2018-11-13T04:58:21.952Z,0
2018-11-13T04:59:21.668Z,0
2018-11-13T05:00:21.982Z,0
2018-11-13T05:01:21.999Z,0
2018-11-13T05:02:22.020Z,0
2018-11-13T05:03:22.303Z,0
2018-11-13T05:04:22.346Z,0
2018-11-13T05:05:22.075Z,0
2018-11-13T05:06:22.114Z,0
2018-11-13T05:07:21.586Z,0
2018-11-13T05:08:22.402Z,0
2018-11-13T05:09:21.916Z,0
2018-11-13T05:10:22.464Z,0
2018-11-13T05:11:22.468Z,0
2018-11-13T05:12:21.695Z,0
2018-11-13T05:13:21.722Z,0
2018-11-13T05:14:22.538Z,0
2018-11-13T05:15:21.761Z,0
2018-11-13T05:16:22.058Z,0
2018-11-13T05:17:22.611Z,0
2018-11-13T05:18:22.384Z,0
2018-11-13T05:19:22.381Z,0
2018-11-13T05:20:22.397Z,0
2018-11-13T05:21:22.703Z,0
2018-11-13T05:22:22.191Z,0
2018-11-13T05:23:23.237Z,0
2018-11-13T05:24:22.228Z,0
2018-11-13T05:25:22.805Z,0
2018-11-13T05:26:22.812Z,0
2018-11-13T05:27:22.577Z,0
2018-11-13T05:28:22.318Z,0
2018-11-13T05:29:22.869Z,0
2018-11-13T05:30:23.158Z,0
2018-11-13T05:31:22.653Z,0
2018-11-13T05:32:22.686Z,0
2018-11-13T05:33:22.981Z,0
2018-11-13T05:34:23.004Z,0
2018-11-13T05:35:22.760Z,0
2018-11-13T05:36:22.220Z,0
2018-11-13T05:37:22.536Z,0
2018-11-13T05:38:22.815Z,0
2018-11-13T05:39:22.564Z,0
2018-11-13T05:40:22.304Z,0
2018-11-13T05:41:22.331Z,0
2018-11-13T05:42:22.885Z,0
2018-11-13T05:43:22.900Z,0
2018-11-13T05:44:23.202Z,0
2018-11-13T05:45:22.968Z,0
2018-11-13T05:46:22.710Z,0
2018-11-13T05:47:24.380Z,0
2018-11-13T05:48:23.021Z,0
2018-11-13T05:49:23.077Z,0
2018-11-13T05:50:22.796Z,0
2018-11-13T05:51:22.551Z,0
2018-11-13T05:52:22.852Z,0
2018-11-13T05:53:22.879Z,0
2018-11-13T05:54:22.892Z,0
2018-11-13T05:55:23.195Z,0
2018-11-13T05:56:23.728Z,0
2018-11-13T05:57:22.958Z,0
2018-11-13T05:58:23.513Z,0
2018-11-13T05:59:23.261Z,0
2018-11-13T06:00:23.021Z,0
2018-11-13T06:01:23.029Z,0
2018-11-13T06:02:23.057Z,0
2018-11-13T06:03:23.359Z,0
2018-11-13T06:04:23.363Z,0
2018-11-13T06:05:23.661Z,0
2018-11-13T06:06:23.698Z,0
2018-11-13T06:07:23.436Z,0
2018-11-13T06:08:23.557Z,0
2018-11-13T06:09:22.947Z,0
2018-11-13T06:10:23.491Z,0
2018-11-13T06:11:23.254Z,0
2018-11-13T06:12:23.308Z,0
2018-11-13T06:13:23.306Z,0
2018-11-13T06:14:23.066Z,0
2018-11-13T06:15:23.346Z,0
2018-11-13T06:16:23.635Z,0
2018-11-13T06:17:23.383Z,0
2018-11-13T06:18:24.557Z,0
2018-11-13T06:19:23.709Z,0
2018-11-13T06:20:23.461Z,0
2018-11-13T06:21:24.007Z,0
2018-11-13T06:22:24.040Z,0
2018-11-13T06:23:23.812Z,0
2018-11-13T06:24:23.805Z,0
2018-11-13T06:25:24.385Z,0
2018-11-13T06:26:23.849Z,0
2018-11-13T06:27:23.879Z,0
2018-11-13T06:28:23.914Z,0
2018-11-13T06:29:23.921Z,0
2018-11-13T06:30:24.215Z,0
2018-11-13T06:31:23.428Z,0
2018-11-13T06:32:23.730Z,0
2018-11-13T06:33:23.738Z,0
2018-11-13T06:34:23.492Z,0
2018-11-13T06:35:24.055Z,0
2018-11-13T06:36:24.334Z,0
2018-11-13T06:37:23.827Z,0
2018-11-13T06:38:23.584Z,0
2018-11-13T06:39:23.884Z,0
2018-11-13T06:40:24.155Z,0
2018-11-13T06:41:24.180Z,0
2018-11-13T06:42:24.228Z,0
2018-11-13T06:43:23.964Z,0
2018-11-13T06:44:23.989Z,0
2018-11-13T06:45:23.733Z,0
2018-11-13T06:46:24.563Z,0
2018-11-13T06:47:24.309Z,0
2018-11-13T06:48:24.687Z,0
2018-11-13T06:49:24.181Z,0
2018-11-13T06:50:24.382Z,0
2018-11-13T06:51:24.405Z,0
2018-11-13T06:52:23.910Z,0
2018-11-13T06:53:24.169Z,0
2018-11-13T06:54:24.460Z,0
2018-11-13T06:55:24.750Z,0
2018-11-13T06:56:24.520Z,0
2018-11-13T06:57:24.808Z,0
2018-11-13T06:58:25.121Z,0
2018-11-13T06:59:24.588Z,0
2018-11-13T07:00:24.340Z,0
2018-11-13T07:01:24.901Z,0
2018-11-13T07:02:24.911Z,0
2018-11-13T07:03:24.926Z,0
2018-11-13T07:04:24.412Z,0
2018-11-13T07:05:24.745Z,0
2018-11-13T07:06:25.271Z,0
2018-11-13T07:07:24.766Z,0
2018-11-13T07:08:25.052Z,0
2018-11-13T07:09:24.814Z,0
2018-11-13T07:10:24.555Z,0
2018-11-13T07:11:24.397Z,0
2018-11-13T07:12:25.132Z,0
2018-11-13T07:13:24.881Z,0
2018-11-13T07:14:24.630Z,0
2018-11-13T07:15:24.659Z,0
2018-11-13T07:16:24.962Z,0
2018-11-13T07:17:24.980Z,0
2018-11-13T07:18:25.181Z,0
2018-11-13T07:19:24.479Z,0
2018-11-13T07:20:24.779Z,5
2018-11-13T07:21:24.826Z,5
2018-11-13T07:22:24.817Z,0
2018-11-13T07:23:25.100Z,0
2018-11-13T07:24:25.117Z,0
2018-11-13T07:25:25.455Z,0
2018-11-13T07:26:25.182Z,0
2018-11-13T07:27:25.074Z,0
2018-11-13T07:28:24.939Z,0
2018-11-13T07:29:25.238Z,5
2018-11-13T07:30:25.255Z,5
2018-11-13T07:31:25.136Z,0
2018-11-13T07:32:25.025Z,0
2018-11-13T07:33:25.335Z,0
2018-11-13T07:34:25.742Z,0
2018-11-13T07:35:25.092Z,0
2018-11-13T07:36:25.127Z,5
2018-11-13T07:37:25.424Z,5
2018-11-13T07:38:25.178Z,5
2018-11-13T07:39:25.720Z,5
2018-11-13T07:40:25.218Z,5
2018-11-13T07:41:25.671Z,5
2018-11-13T07:42:25.524Z,5
2018-11-13T07:43:25.016Z,5
2018-11-13T07:44:25.825Z,5
2018-11-13T07:45:25.601Z,5
2018-11-13T07:46:25.890Z,5
2018-11-13T07:47:26.311Z,5
2018-11-13T07:48:26.187Z,5
2018-11-13T07:49:25.132Z,5
2018-11-13T07:50:25.438Z,5
2018-11-13T07:51:25.629Z,5
2018-11-13T07:52:25.755Z,10
2018-11-13T07:53:25.495Z,10
2018-11-13T07:54:25.869Z,10
2018-11-13T07:55:25.802Z,10
2018-11-13T07:56:25.564Z,10
2018-11-13T07:57:26.142Z,10
2018-11-13T07:58:25.639Z,10
2018-11-13T07:59:25.895Z,10
2018-11-13T08:00:25.901Z,10
2018-11-13T08:01:25.421Z,10
2018-11-13T08:02:25.691Z,5
2018-11-13T08:03:26.182Z,10
2018-11-13T08:04:25.732Z,10
2018-11-13T08:05:25.758Z,10
2018-11-13T08:06:26.513Z,10
2018-11-13T08:07:25.896Z,10
2018-11-13T08:08:26.110Z,10
2018-11-13T08:09:26.248Z,10
2018-11-13T08:10:26.160Z,10
2018-11-13T08:11:25.624Z,10
2018-11-13T08:12:26.191Z,10
2018-11-13T08:13:27.142Z,10
2018-11-13T08:14:26.211Z,10
2018-11-13T08:15:25.727Z,10
2018-11-13T08:16:26.339Z,10
2018-11-13T08:17:26.299Z,10
2018-11-13T08:18:25.871Z,10
2018-11-13T08:19:26.597Z,15
2018-11-13T08:20:26.353Z,15
2018-11-13T08:21:26.381Z,15
2018-11-13T08:22:25.866Z,20
2018-11-13T08:23:26.957Z,15
2018-11-13T08:24:26.179Z,15
2018-11-13T08:25:26.746Z,20
2018-11-13T08:26:26.297Z,25
2018-11-13T08:27:26.234Z,25
2018-11-13T08:28:26.515Z,25
2018-11-13T08:29:27.237Z,20
2018-11-13T08:30:26.308Z,20
2018-11-13T08:31:26.730Z,20
2018-11-13T08:32:26.888Z,15
2018-11-13T08:33:26.896Z,15
2018-11-13T08:34:26.670Z,20
2018-11-13T08:35:26.428Z,25
2018-11-13T08:36:26.995Z,20
2018-11-13T08:37:26.199Z,25
2018-11-13T08:38:26.489Z,25
2018-11-13T08:39:26.769Z,25
2018-11-13T08:40:27.071Z,25
2018-11-13T08:41:27.078Z,25
2018-11-13T08:42:27.095Z,25
2018-11-13T08:43:26.870Z,25
2018-11-13T08:44:26.345Z,25
2018-11-13T08:45:26.930Z,25
2018-11-13T08:46:27.067Z,20
2018-11-13T08:47:26.674Z,20
2018-11-13T08:48:27.245Z,25
2018-11-13T08:49:27.000Z,25
2018-11-13T08:50:27.445Z,25
2018-11-13T08:51:26.776Z,25
2018-11-13T08:52:26.509Z,25
2018-11-13T08:53:27.069Z,25
2018-11-13T08:54:27.402Z,25
2018-11-13T08:55:26.859Z,25
2018-11-13T08:56:26.887Z,25
2018-11-13T08:57:27.184Z,25
2018-11-13T08:58:28.264Z,25
2018-11-13T08:59:27.649Z,25
2018-11-13T09:00:27.251Z,25
2018-11-13T09:01:26.995Z,25
2018-11-13T09:02:27.277Z,25
2018-11-13T09:03:27.832Z,25
2018-11-13T09:04:27.062Z,25
2018-11-13T09:05:27.575Z,25
2018-11-13T09:06:27.371Z,25
2018-11-13T09:07:27.107Z,30
2018-11-13T09:08:26.887Z,30
2018-11-13T09:09:27.433Z,30
2018-11-13T09:10:27.461Z,20
2018-11-13T09:11:27.826Z,25
2018-11-13T09:12:27.980Z,25
2018-11-13T09:13:26.980Z,30
2018-11-13T09:14:27.539Z,25
2018-11-13T09:15:27.285Z,20
2018-11-13T09:16:27.585Z,25
2018-11-13T09:17:27.327Z,25
2018-11-13T09:18:27.949Z,20
2018-11-13T09:19:28.870Z,30
2018-11-13T09:20:27.663Z,30
2018-11-13T09:21:27.159Z,25
2018-11-13T09:22:27.469Z,30
2018-11-13T09:23:27.476Z,30
2018-11-13T09:24:28.335Z,35
2018-11-13T09:25:27.245Z,35
2018-11-13T09:26:27.257Z,30
2018-11-13T09:27:27.819Z,35
2018-11-13T09:28:27.574Z,35
2018-11-13T09:29:27.592Z,35
2018-11-13T09:30:28.233Z,35
2018-11-13T09:31:27.727Z,30
2018-11-13T09:32:27.680Z,35
2018-11-13T09:33:28.335Z,35
2018-11-13T09:34:27.699Z,25
2018-11-13T09:35:27.749Z,30
2018-11-13T09:36:28.013Z,25
2018-11-13T09:37:29.002Z,30
2018-11-13T09:38:28.362Z,30
2018-11-13T09:39:27.562Z,30
2018-11-13T09:40:27.564Z,35
2018-11-13T09:41:27.872Z,30
2018-11-13T09:42:28.147Z,35
2018-11-13T09:43:27.899Z,30
2018-11-13T09:44:27.927Z,35
2018-11-13T09:45:28.218Z,30
2018-11-13T09:46:28.332Z,20
2018-11-13T09:47:28.422Z,25
2018-11-13T09:48:28.293Z,25
2018-11-13T09:49:28.030Z,25
2018-11-13T09:50:28.449Z,30
2018-11-13T09:51:28.075Z,30
2018-11-13T09:52:28.379Z,35
2018-11-13T09:53:29.247Z,30
2018-11-13T09:54:28.148Z,35
2018-11-13T09:55:28.766Z,30
2018-11-13T09:56:28.295Z,35
2018-11-13T09:57:27.946Z,35
2018-11-13T09:58:28.538Z,30
2018-11-13T09:59:28.744Z,30
2018-11-13T10:00:28.150Z,25
2018-11-13T10:01:29.526Z,30
2018-11-13T10:02:28.738Z,20
2018-11-13T10:03:30.947Z,35
2018-11-13T10:04:31.805Z,35
2018-11-13T10:05:29.324Z,40
2018-11-13T10:06:28.671Z,35
2018-11-13T10:07:28.162Z,40
2018-11-13T10:08:29.262Z,40
2018-11-13T10:09:28.752Z,40
2018-11-13T10:10:28.543Z,35
2018-11-13T10:11:29.060Z,30
2018-11-13T10:12:29.069Z,35
2018-11-13T10:13:28.587Z,35
2018-11-13T10:14:28.868Z,30
2018-11-13T10:15:28.612Z,25
2018-11-13T10:16:28.685Z,40
2018-11-13T10:17:28.794Z,35
2018-11-13T10:18:28.505Z,35
2018-11-13T10:19:28.447Z,40
2018-11-13T10:20:29.009Z,35
2018-11-13T10:21:28.741Z,30
2018-11-13T10:22:29.301Z,35
2018-11-13T10:23:29.056Z,35
2018-11-13T10:24:29.083Z,40
2018-11-13T10:25:28.827Z,30
2018-11-13T10:26:29.084Z,25
2018-11-13T10:27:28.871Z,30
2018-11-13T10:28:28.626Z,25
2018-11-13T10:29:28.916Z,40
2018-11-13T10:30:29.231Z,35
2018-11-13T10:31:28.993Z,25
2018-11-13T10:32:29.258Z,40
2018-11-13T10:33:29.274Z,30
2018-11-13T10:34:29.023Z,45
2018-11-13T10:35:29.054Z,45
2018-11-13T10:36:29.337Z,45
2018-11-13T10:37:29.451Z,35
2018-11-13T10:38:29.674Z,30
2018-11-13T10:39:29.425Z,30
2018-11-13T10:40:30.074Z,30
2018-11-13T10:41:29.427Z,30
2018-11-13T10:42:29.753Z,25
2018-11-13T10:43:29.246Z,30
2018-11-13T10:44:28.995Z,30
2018-11-13T10:45:30.098Z,30
2018-11-13T10:46:29.039Z,25
2018-11-13T10:47:29.351Z,30
2018-11-13T10:48:29.345Z,20
2018-11-13T10:49:29.637Z,15
2018-11-13T10:50:30.202Z,20
2018-11-13T10:51:29.417Z,30
2018-11-13T10:52:29.702Z,35
2018-11-13T10:53:29.747Z,35
2018-11-13T10:54:29.493Z,40
2018-11-13T10:55:30.327Z,45
2018-11-13T10:56:29.403Z,35
2018-11-13T10:57:29.550Z,30
2018-11-13T10:58:29.587Z,25
2018-11-13T10:59:29.615Z,20
2018-11-13T11:00:29.620Z,25
2018-11-13T11:01:29.630Z,25
2018-11-13T11:02:29.920Z,30
2018-11-13T11:03:29.966Z,30
2018-11-13T11:04:30.164Z,30
2018-11-13T11:05:29.732Z,20
2018-11-13T11:06:30.018Z,15
2018-11-13T11:07:29.776Z,10
2018-11-13T11:08:30.453Z,10
2018-11-13T11:09:29.808Z,10
2018-11-13T11:10:30.130Z,10
2018-11-13T11:11:30.487Z,10
2018-11-13T11:12:29.883Z,10
2018-11-13T11:13:30.976Z,15
2018-11-13T11:14:29.950Z,15
2018-11-13T11:15:30.497Z,15
2018-11-13T11:16:30.525Z,15
2018-11-13T11:17:30.012Z,15
2018-11-13T11:18:30.020Z,15
2018-11-13T11:19:31.262Z,15
2018-11-13T11:20:30.063Z,20
2018-11-13T11:21:30.364Z,25
2018-11-13T11:22:30.382Z,30
2018-11-13T11:23:30.194Z,35
2018-11-13T11:24:31.170Z,40
2018-11-13T11:25:30.915Z,40
2018-11-13T11:26:30.627Z,40
2018-11-13T11:27:30.749Z,30
2018-11-13T11:28:30.517Z,35
2018-11-13T11:29:30.531Z,35
2018-11-13T11:30:30.006Z,30
2018-11-13T11:31:30.590Z,35
2018-11-13T11:32:30.334Z,40
2018-11-13T11:33:30.907Z,50
2018-11-13T11:34:30.637Z,55
2018-11-13T11:35:30.680Z,55
2018-11-13T11:36:30.705Z,50
2018-11-13T11:37:30.438Z,50
2018-11-13T11:38:31.014Z,45
2018-11-13T11:39:30.500Z,35
2018-11-13T11:40:30.782Z,25
2018-11-13T11:41:30.799Z,20
2018-11-13T11:42:30.548Z,15
2018-11-13T11:43:31.116Z,15
2018-11-13T11:44:30.903Z,25
2018-11-13T11:45:30.892Z,30
2018-11-13T11:46:30.916Z,65
2018-11-13T11:47:31.196Z,65
2018-11-13T11:48:31.264Z,60
2018-11-13T11:49:30.705Z,40
2018-11-13T11:50:30.717Z,35
2018-11-13T11:51:30.765Z,35
2018-11-13T11:52:30.764Z,25
2018-11-13T11:53:30.796Z,25
2018-11-13T11:54:30.827Z,25
2018-11-13T11:55:31.105Z,25
2018-11-13T11:56:30.871Z,25
2018-11-13T11:57:30.630Z,30
2018-11-13T11:58:31.168Z,35
2018-11-13T11:59:30.924Z,30
2018-11-13T12:00:31.690Z,30
2018-11-13T12:01:31.521Z,50
2018-11-13T12:02:31.756Z,55
2018-11-13T12:03:31.012Z,50
2018-11-13T12:04:31.353Z,45
2018-11-13T12:05:31.602Z,45
2018-11-13T12:06:31.360Z,30
2018-11-13T12:07:30.847Z,25
2018-11-13T12:08:31.686Z,25
2018-11-13T12:09:31.967Z,25
2018-11-13T12:10:31.724Z,25
2018-11-13T12:11:31.745Z,25
2018-11-13T12:12:32.418Z,20
2018-11-13T12:13:31.514Z,20
2018-11-13T12:14:31.274Z,15
2018-11-13T12:15:31.578Z,10
2018-11-13T12:16:31.312Z,15
2018-11-13T12:17:31.604Z,15
2018-11-13T12:18:31.367Z,15
2018-11-13T12:19:32.298Z,15
2018-11-13T12:20:31.687Z,10
2018-11-13T12:21:32.233Z,15
2018-11-13T12:22:31.466Z,10
2018-11-13T12:23:31.480Z,5
2018-11-13T12:24:31.494Z,5
2018-11-13T12:25:31.803Z,5
2018-11-13T12:26:31.277Z,5
2018-11-13T12:27:31.833Z,5
2018-11-13T12:28:32.149Z,10
2018-11-13T12:29:31.903Z,5
2018-11-13T12:30:31.349Z,5
2018-11-13T12:31:32.459Z,5
2018-11-13T12:32:31.687Z,5
2018-11-13T12:33:32.088Z,10
2018-11-13T12:34:32.090Z,5
2018-11-13T12:35:32.351Z,10
2018-11-13T12:36:32.303Z,10
2018-11-13T12:37:31.512Z,10
2018-11-13T12:38:31.794Z,5
2018-11-13T12:39:31.827Z,10
2018-11-13T12:40:31.854Z,10
2018-11-13T12:41:32.147Z,5
2018-11-13T12:42:31.951Z,5
2018-11-13T12:43:31.921Z,5
2018-11-13T12:44:31.936Z,10
2018-11-13T12:45:32.495Z,5
2018-11-13T12:46:31.751Z,5
2018-11-13T12:47:32.277Z,0
2018-11-13T12:48:32.318Z,0
2018-11-13T12:49:32.216Z,0
2018-11-13T12:50:32.069Z,0
2018-11-13T12:51:32.359Z,0
2018-11-13T12:52:33.430Z,5
2018-11-13T12:53:32.689Z,5
2018-11-13T12:54:32.436Z,5
2018-11-13T12:55:32.717Z,5
2018-11-13T12:56:32.896Z,5
2018-11-13T12:57:32.519Z,5
2018-11-13T12:58:32.243Z,25
2018-11-13T12:59:32.822Z,55
2018-11-13T13:00:32.846Z,45
2018-11-13T13:01:32.320Z,30
2018-11-13T13:02:32.782Z,30
2018-11-13T13:03:32.621Z,35
2018-11-13T13:04:32.904Z,35
2018-11-13T13:05:32.142Z,30
2018-11-13T13:06:32.696Z,25
2018-11-13T13:07:32.751Z,30
2018-11-13T13:08:32.858Z,30
2018-11-13T13:09:32.767Z,25
2018-11-13T13:10:32.528Z,15
2018-11-13T13:11:32.543Z,20
2018-11-13T13:12:32.845Z,25
2018-11-13T13:13:32.860Z,30
2018-11-13T13:14:32.611Z,25
2018-11-13T13:15:32.363Z,20
2018-11-13T13:16:33.481Z,15
2018-11-13T13:17:33.485Z,10
2018-11-13T13:18:33.245Z,15
2018-11-13T13:19:32.709Z,15
2018-11-13T13:20:32.473Z,15
2018-11-13T13:21:33.045Z,25
2018-11-13T13:22:32.978Z,30
2018-11-13T13:23:32.809Z,30
2018-11-13T13:24:32.836Z,40
2018-11-13T13:25:33.424Z,40
2018-11-13T13:26:33.412Z,30
2018-11-13T13:27:32.623Z,30
2018-11-13T13:28:32.656Z,35
2018-11-13T13:29:32.932Z,30
2018-11-13T13:30:32.979Z,35
2018-11-13T13:31:33.304Z,35
2018-11-13T13:32:33.277Z,30
2018-11-13T13:33:33.037Z,30
2018-11-13T13:34:33.322Z,25
2018-11-13T13:35:33.069Z,15
2018-11-13T13:36:33.381Z,20
2018-11-13T13:37:33.117Z,20
2018-11-13T13:38:33.213Z,20
2018-11-13T13:39:33.965Z,25
2018-11-13T13:40:33.204Z,20
2018-11-13T13:41:33.481Z,15
2018-11-13T13:42:33.770Z,20
2018-11-13T13:43:33.830Z,25
2018-11-13T13:44:33.544Z,20
2018-11-13T13:45:33.844Z,20
2018-11-13T13:46:33.383Z,15
2018-11-13T13:47:33.343Z,15
2018-11-13T13:48:33.357Z,15
2018-11-13T13:49:33.385Z,15
2018-11-13T13:50:34.208Z,15
2018-11-13T13:51:33.692Z,20
2018-11-13T13:52:33.466Z,20
2018-11-13T13:53:33.776Z,20
2018-11-13T13:54:33.752Z,20
2018-11-13T13:55:34.958Z,20
2018-11-13T13:56:33.871Z,20
2018-11-13T13:57:33.623Z,20
2018-11-13T13:58:33.849Z,20
2018-11-13T13:59:34.509Z,20
2018-11-13T14:00:33.801Z,25
2018-11-13T14:01:33.945Z,30
2018-11-13T14:02:33.950Z,20
2018-11-13T14:03:34.784Z,15
2018-11-13T14:04:34.001Z,15
2018-11-13T14:05:34.013Z,10
2018-11-13T14:06:34.373Z,10
2018-11-13T14:07:34.055Z,10
2018-11-13T14:08:33.906Z,10
2018-11-13T14:09:34.099Z,10
2018-11-13T14:10:33.857Z,10
2018-11-13T14:11:34.426Z,15
2018-11-13T14:12:33.915Z,15
2018-11-13T14:13:34.202Z,20
2018-11-13T14:14:34.226Z,30
2018-11-13T14:15:34.633Z,45
2018-11-13T14:16:34.991Z,25
2018-11-13T14:17:34.276Z,25
2018-11-13T14:18:34.292Z,40
2018-11-13T14:19:33.782Z,25
2018-11-13T14:20:34.086Z,25
2018-11-13T14:21:34.369Z,25
2018-11-13T14:22:34.420Z,20
2018-11-13T14:23:34.694Z,15
2018-11-13T14:24:34.191Z,15
2018-11-13T14:25:34.495Z,20
2018-11-13T14:26:34.008Z,15
2018-11-13T14:27:34.530Z,15
2018-11-13T14:28:34.521Z,10
2018-11-13T14:29:34.814Z,10
2018-11-13T14:30:34.571Z,10
2018-11-13T14:31:34.622Z,10
2018-11-13T14:32:34.613Z,10
2018-11-13T14:33:34.105Z,10